createdAt,value
2023-02-19T00:01:28.890Z,10.52
2023-02-19T00:03:58.011Z,9.65
2023-02-19T00:06:26.345Z,10.60
2023-02-19T00:08:53.420Z,10.80
2023-02-19T00:11:22.879Z,10.75
2023-02-19T00:13:52.222Z,9.88
2023-02-19T00:16:24.577Z,9.95
2023-02-19T00:18:51.880Z,10.35
2023-02-19T00:21:19.416Z,9.50
2023-02-19T00:23:54.196Z,10.02
2023-02-19T00:26:21.621Z,9.68
2023-02-19T00:28:49.972Z,9.88
2023-02-19T00:31:18.878Z,9.77
2023-02-19T00:33:46.757Z,10.50
2023-02-19T00:36:14.631Z,10.60
2023-02-19T00:38:42.539Z,10.80
2023-02-19T00:41:19.398Z,10.02
2023-02-19T00:43:50.086Z,10.00
2023-02-19T00:46:22.420Z,11.23
2023-02-19T00:48:49.531Z,9.80
2023-02-19T00:51:16.959Z,10.07
2023-02-19T00:53:43.817Z,11.38
2023-02-19T00:56:10.614Z,10.35
2023-02-19T00:58:37.382Z,9.63
2023-02-19T01:01:06.481Z,10.60
2023-02-19T01:03:34.577Z,9.50
2023-02-19T01:06:02.235Z,10.38
2023-02-19T01:08:31.074Z,9.32
2023-02-19T01:10:58.448Z,10.15
2023-02-19T01:13:25.538Z,10.90
2023-02-19T01:15:52.487Z,10.95
2023-02-19T01:18:19.287Z,10.85
2023-02-19T01:20:46.924Z,10.25
2023-02-19T01:23:14.196Z,9.27
2023-02-19T01:25:42.105Z,10.38
2023-02-19T01:28:09.398Z,9.82
2023-02-19T01:30:37.194Z,10.30
2023-02-19T01:33:05.611Z,9.40
2023-02-19T01:35:32.680Z,9.45
2023-02-19T01:37:59.437Z,10.05
2023-02-19T01:40:26.857Z,9.57
2023-02-19T01:42:53.660Z,8.95
2023-02-19T01:45:30.331Z,9.55
2023-02-19T01:48:07.076Z,8.52
2023-02-19T01:50:38.989Z,9.38
2023-02-19T01:53:09.543Z,9.40
2023-02-19T01:58:04.375Z,9.38
2023-02-19T02:00:33.711Z,9.13
2023-02-19T02:03:01.432Z,8.73
2023-02-19T02:06:07.188Z,9.63
2023-02-19T02:08:52.899Z,9.68
2023-02-19T02:11:20.559Z,8.65
2023-02-19T02:13:47.309Z,9.30
2023-02-19T02:16:29.087Z,9.82
2023-02-19T02:19:25.058Z,9.10
2023-02-19T02:22:00.260Z,8.23
2023-02-19T02:25:14.828Z,7.78
2023-02-19T02:27:49.358Z,8.00
2023-02-19T02:30:37.548Z,6.95
2023-02-19T02:33:30.567Z,4.50
2023-02-19T02:36:03.648Z,2.95
2023-02-19T02:38:34.604Z,2.60
2023-02-19T02:41:02.607Z,2.72
2023-02-19T02:43:29.360Z,2.70
2023-02-19T02:45:56.293Z,2.67
2023-02-19T02:48:45.786Z,3.15
2023-02-19T02:51:21.072Z,3.08
2023-02-19T02:54:33.846Z,2.88
2023-02-19T02:57:01.834Z,2.47
2023-02-19T02:59:33.522Z,2.58
2023-02-19T03:02:11.218Z,2.22
2023-02-19T03:05:33.954Z,2.58
2023-02-19T03:08:04.575Z,2.25
2023-02-19T03:10:36.214Z,2.65
2023-02-19T03:13:26.019Z,2.30
2023-02-19T03:16:17.485Z,2.13
2023-02-19T03:19:06.809Z,2.20
2023-02-19T03:21:36.331Z,2.17
2023-02-19T03:24:23.048Z,2.15
2023-02-19T03:26:53.998Z,2.28
2023-02-19T03:29:26.400Z,2.30
2023-02-19T03:32:13.075Z,2.20
2023-02-19T03:34:49.247Z,2.40
2023-02-19T03:37:18.931Z,2.40
2023-02-19T03:39:45.775Z,2.70
2023-02-19T03:42:24.972Z,2.97
2023-02-19T03:45:16.336Z,2.65
2023-02-19T03:47:49.973Z,2.65
2023-02-19T03:50:48.257Z,2.97
2023-02-19T03:53:20.487Z,3.05
2023-02-19T03:56:08.327Z,3.08
2023-02-19T03:58:40.487Z,2.90
2023-02-19T04:01:19.786Z,2.75
2023-02-19T04:03:55.636Z,3.05
2023-02-19T04:06:32.026Z,3.40
2023-02-19T04:09:03.036Z,3.15
2023-02-19T04:11:31.514Z,2.88
2023-02-19T04:14:13.136Z,2.90
2023-02-19T04:16:42.726Z,3.28
2023-02-19T04:19:13.877Z,2.90
2023-02-19T04:21:42.312Z,3.53
2023-02-19T04:24:25.260Z,3.13
2023-02-19T04:26:53.237Z,3.03
2023-02-19T04:29:19.888Z,3.40
2023-02-19T04:31:46.651Z,3.25
2023-02-19T04:34:13.557Z,2.72
2023-02-19T04:36:40.346Z,3.30
2023-02-19T04:39:08.264Z,3.20
2023-02-19T04:41:35.202Z,3.10
2023-02-19T04:44:01.864Z,3.10
2023-02-19T04:46:28.788Z,3.03
2023-02-19T04:48:56.164Z,3.17
2023-02-19T04:51:23.796Z,3.42
2023-02-19T04:53:50.514Z,3.13
2023-02-19T04:56:18.326Z,3.25
2023-02-19T04:58:45.611Z,3.90
2023-02-19T05:01:12.996Z,3.80
2023-02-19T05:03:40.472Z,3.65
2023-02-19T05:06:09.826Z,4.43
2023-02-19T05:08:36.722Z,4.05
2023-02-19T05:11:05.921Z,4.30
2023-02-19T05:13:33.018Z,4.18
2023-02-19T05:16:05.742Z,3.85
2023-02-19T05:18:34.750Z,4.65
2023-02-19T05:21:02.035Z,4.88
2023-02-19T05:23:29.269Z,4.45
2023-02-19T05:25:56.455Z,3.70
2023-02-19T05:28:28.710Z,3.95
2023-02-19T05:30:57.112Z,3.78
2023-02-19T05:33:25.981Z,3.40
2023-02-19T05:35:55.335Z,3.85
2023-02-19T05:38:23.001Z,3.13
2023-02-19T05:40:50.568Z,3.35
2023-02-19T05:43:17.587Z,3.55
2023-02-19T05:45:44.455Z,3.15
2023-02-19T05:48:11.916Z,2.72
2023-02-19T05:50:39.969Z,3.05
2023-02-19T05:53:06.792Z,2.38
2023-02-19T05:55:37.085Z,3.10
2023-02-19T05:58:03.798Z,2.45
2023-02-19T06:00:32.230Z,2.75
2023-02-19T06:02:59.015Z,2.60
2023-02-19T06:05:25.713Z,2.53
2023-02-19T06:07:52.626Z,3.38
2023-02-19T06:10:19.737Z,2.92
2023-02-19T06:12:46.437Z,2.85
2023-02-19T06:15:13.116Z,2.90
2023-02-19T06:17:40.405Z,2.72
2023-02-19T06:20:07.333Z,2.75
2023-02-19T06:22:34.188Z,3.28
2023-02-19T06:25:00.898Z,3.00
2023-02-19T06:27:28.209Z,3.28
2023-02-19T06:29:54.964Z,3.17
2023-02-19T06:32:22.404Z,2.85
2023-02-19T06:34:49.132Z,3.83
2023-02-19T06:37:15.860Z,3.10
2023-02-19T06:39:44.016Z,3.40
2023-02-19T06:42:10.740Z,3.25
2023-02-19T06:44:37.534Z,3.28
2023-02-19T06:47:04.736Z,3.15
2023-02-19T06:49:31.393Z,3.65
2023-02-19T06:51:59.247Z,3.33
2023-02-19T06:54:26.403Z,3.58
2023-02-19T06:56:53.247Z,3.40
2023-02-19T06:59:19.887Z,3.17
2023-02-19T07:01:46.721Z,3.95
2023-02-19T07:04:13.501Z,3.03
2023-02-19T07:06:40.309Z,3.10
2023-02-19T07:09:08.621Z,3.25
2023-02-19T07:11:38.183Z,3.55
2023-02-19T07:14:10.217Z,3.55
2023-02-19T07:16:37.537Z,3.85
2023-02-19T07:19:04.376Z,3.60
2023-02-19T07:21:37.913Z,3.42
2023-02-19T07:24:05.837Z,3.75
2023-02-19T07:26:32.557Z,3.50
2023-02-19T07:28:59.510Z,3.60
2023-02-19T07:31:26.455Z,3.60
2023-02-19T07:33:53.474Z,3.60
2023-02-19T07:36:22.827Z,3.45
2023-02-19T07:38:57.436Z,3.47
2023-02-19T07:41:25.017Z,3.22
2023-02-19T07:43:51.717Z,3.22
2023-02-19T07:46:18.422Z,3.17
2023-02-19T07:48:45.791Z,3.30
2023-02-19T07:51:18.772Z,3.55
2023-02-19T07:53:47.041Z,3.60
2023-02-19T07:56:14.253Z,3.15
2023-02-19T07:58:41.546Z,3.58
2023-02-19T08:01:16.064Z,3.47
2023-02-19T08:03:43.951Z,3.22
2023-02-19T08:06:11.758Z,3.55
2023-02-19T08:08:40.043Z,3.42
2023-02-19T08:11:26.393Z,3.30
2023-02-19T08:13:53.776Z,3.03
2023-02-19T08:16:33.074Z,3.00
2023-02-19T08:19:00.503Z,3.03
2023-02-19T08:21:27.189Z,3.63
2023-02-19T08:23:53.817Z,2.83
2023-02-19T08:26:20.796Z,3.20
2023-02-19T08:28:48.811Z,2.85
2023-02-19T08:31:16.238Z,3.42
2023-02-19T08:33:43.231Z,2.90
2023-02-19T08:36:11.667Z,3.10
2023-02-19T08:38:38.578Z,3.15
2023-02-19T08:41:11.781Z,2.70
2023-02-19T11:17:39.379Z,1.75
2023-02-19T11:20:15.072Z,1.70
2023-02-19T11:22:47.064Z,1.50
2023-02-19T11:25:14.608Z,1.52
2023-02-19T11:28:07.584Z,1.38
2023-02-19T11:30:36.617Z,1.30
2023-02-19T11:33:24.622Z,1.70
2023-02-19T11:36:17.994Z,1.77
2023-02-19T11:38:45.165Z,1.60
2023-02-19T11:41:39.872Z,1.35
2023-02-19T11:44:06.741Z,1.85
2023-02-19T11:46:49.725Z,2.10
2023-02-19T11:49:34.606Z,1.70
2023-02-19T11:52:29.381Z,1.45
2023-02-19T11:55:03.966Z,1.63
2023-02-19T11:57:44.555Z,1.85
2023-02-19T12:00:27.581Z,1.67
2023-02-19T12:03:29.575Z,1.60
2023-02-19T12:06:22.313Z,2.10
2023-02-19T12:09:10.881Z,1.58
2023-02-19T12:12:14.987Z,1.77
2023-02-19T12:14:58.902Z,1.50
2023-02-19T12:17:56.222Z,1.60
2023-02-19T12:20:40.187Z,1.33
2023-02-19T12:23:07.152Z,1.80
2023-02-19T12:25:58.445Z,1.33
2023-02-19T12:28:25.456Z,1.90
2023-02-19T12:31:35.180Z,1.25
2023-02-19T12:34:20.580Z,1.52
2023-02-19T12:37:06.165Z,1.45
2023-02-19T12:39:44.223Z,1.40
2023-02-19T12:42:47.948Z,1.52
2023-02-19T12:45:25.884Z,1.50
2023-02-19T12:48:01.588Z,1.38
2023-02-19T12:50:34.557Z,2.10
2023-02-19T12:53:40.045Z,1.60
2023-02-19T12:56:14.803Z,1.85
2023-02-19T12:58:51.073Z,1.80
2023-02-19T13:01:31.881Z,1.48
2023-02-19T13:04:16.990Z,1.70
2023-02-19T13:06:53.857Z,1.70
2023-02-19T13:09:29.322Z,2.13
2023-02-19T13:12:04.809Z,1.52
2023-02-19T13:14:40.263Z,1.92
2023-02-19T13:17:33.119Z,1.63
2023-02-19T13:20:15.228Z,1.92
2023-02-19T13:23:26.086Z,2.20
2023-02-19T13:26:21.006Z,2.10
2023-02-19T13:29:09.164Z,1.80
2023-02-19T13:31:58.083Z,1.77
2023-02-19T13:34:47.946Z,1.70
2023-02-19T13:37:16.396Z,2.15
2023-02-19T13:39:51.396Z,2.38
2023-02-19T13:42:29.035Z,1.67
2023-02-19T13:44:57.987Z,1.50
2023-02-19T13:48:04.554Z,1.80
2023-02-19T13:50:34.241Z,1.60
2023-02-19T13:53:22.039Z,1.60
2023-02-19T13:55:52.548Z,1.70
2023-02-19T13:58:39.720Z,1.52
2023-02-19T14:01:10.276Z,1.30
2023-02-19T14:03:37.133Z,1.70
2023-02-19T14:06:06.846Z,1.80
2023-02-19T14:08:58.769Z,1.60
2023-02-19T14:12:03.737Z,1.42
2023-02-19T14:14:37.784Z,1.30
2023-02-19T14:17:26.946Z,1.20
2023-02-19T14:20:21.364Z,1.48
2023-02-19T14:23:01.716Z,1.45
2023-02-19T14:25:49.134Z,1.55
2023-02-19T14:28:45.008Z,1.48
2023-02-19T14:31:29.319Z,1.63
2023-02-19T14:34:00.517Z,1.67
2023-02-19T14:36:45.269Z,1.80
2023-02-19T14:39:24.611Z,2.22
2023-02-19T14:41:54.994Z,1.85
2023-02-19T14:44:52.883Z,1.80
2023-02-19T14:47:26.024Z,1.80
2023-02-19T14:50:02.641Z,1.70
2023-02-19T14:52:46.608Z,1.55
2023-02-19T14:55:29.191Z,2.25
2023-02-19T14:57:59.885Z,1.90
2023-02-19T15:00:27.085Z,1.90
2023-02-19T15:02:56.857Z,1.80
2023-02-19T15:05:45.027Z,2.73
2023-02-19T15:08:18.560Z,2.10
2023-02-19T15:10:45.908Z,2.38
2023-02-19T15:13:24.134Z,2.10
2023-02-19T15:15:51.222Z,2.20
2023-02-19T15:18:21.374Z,2.72
2023-02-19T15:20:48.864Z,2.05
2023-02-19T15:23:22.604Z,2.03
2023-02-19T15:25:49.996Z,1.95
2023-02-19T15:28:24.235Z,1.73
2023-02-19T15:31:06.261Z,1.65
2023-02-19T15:33:33.730Z,2.28
2023-02-19T15:36:04.816Z,1.80
2023-02-19T15:38:33.232Z,1.85
2023-02-19T15:41:00.485Z,1.70
2023-02-19T15:43:44.359Z,2.38
2023-02-19T15:46:20.793Z,1.90
2023-02-19T15:48:59.785Z,1.70
2023-02-19T15:51:43.589Z,2.00
2023-02-19T15:54:29.849Z,2.50
2023-02-19T15:57:03.350Z,2.13
2023-02-19T15:59:39.070Z,2.20
2023-02-19T16:02:13.291Z,1.80
2023-02-19T16:04:45.123Z,2.10
2023-02-19T16:07:24.971Z,2.03
2023-02-19T16:10:18.026Z,1.90
2023-02-19T16:12:54.971Z,2.00
2023-02-19T16:15:21.881Z,2.05
2023-02-19T16:17:48.906Z,1.75
2023-02-19T16:20:34.832Z,2.28
2023-02-19T16:23:04.446Z,2.00
2023-02-19T16:25:41.803Z,1.80
2023-02-19T16:28:24.290Z,1.80
2023-02-19T16:31:04.443Z,2.22
2023-02-19T16:33:37.030Z,1.88
2023-02-19T16:36:21.436Z,2.42
2023-02-19T16:39:14.846Z,2.30
2023-02-19T16:42:02.359Z,2.13
2023-02-19T16:44:31.013Z,2.88
2023-02-19T16:47:12.559Z,1.90
2023-02-19T16:49:42.581Z,2.63
2023-02-19T16:52:14.451Z,2.25
2023-02-19T16:54:41.439Z,2.13
2023-02-19T16:57:08.122Z,2.08
2023-02-19T16:59:35.020Z,2.13
2023-02-19T17:02:05.653Z,2.65
2023-02-19T17:06:59.307Z,2.58
2023-02-19T17:09:26.027Z,2.00
2023-02-19T17:11:52.718Z,2.95
2023-02-19T17:14:19.559Z,2.10
2023-02-19T17:16:46.969Z,1.92
2023-02-19T17:19:18.730Z,1.90
2023-02-19T17:21:46.880Z,2.10
2023-02-19T17:24:14.778Z,1.90
2023-02-19T17:26:41.954Z,2.17
2023-02-19T17:29:14.210Z,1.85
2023-02-19T17:31:41.019Z,4.00
2023-02-19T17:34:07.883Z,3.28
2023-02-19T17:36:34.783Z,6.53
2023-02-19T17:39:03.297Z,2.50
2023-02-19T17:41:30.009Z,1.95
2023-02-19T17:43:56.848Z,3.38
2023-02-19T17:46:26.267Z,7.22
2023-02-19T17:48:54.200Z,2.97
2023-02-19T17:51:21.505Z,2.00
2023-02-19T17:53:48.296Z,2.53
2023-02-19T17:56:25.652Z,2.47
2023-02-19T17:58:53.228Z,2.50
2023-02-19T18:01:20.042Z,2.40
2023-02-19T18:03:46.943Z,3.20
2023-02-19T18:06:13.861Z,2.50
2023-02-19T18:08:47.052Z,2.20
2023-02-19T18:11:14.001Z,2.50
2023-02-19T18:13:40.748Z,2.35
2023-02-19T18:16:07.555Z,2.20
2023-02-19T18:18:34.264Z,2.40
2023-02-19T18:21:01.025Z,2.88
2023-02-19T18:23:27.762Z,2.60
2023-02-19T18:25:54.546Z,2.22
2023-02-19T18:28:21.249Z,2.22
2023-02-19T18:30:48.531Z,2.30
2023-02-19T18:33:15.586Z,2.13
2023-02-19T18:35:42.273Z,2.00
2023-02-19T18:38:08.988Z,1.75
2023-02-19T18:40:35.715Z,2.15
2023-02-19T18:43:02.415Z,2.10
2023-02-19T18:45:29.771Z,2.55
2023-02-19T18:47:56.599Z,2.25
2023-02-19T18:50:23.487Z,2.35
2023-02-19T18:52:50.271Z,2.00
2023-02-19T18:55:17.026Z,2.50
2023-02-19T18:57:44.424Z,2.00
2023-02-19T19:00:16.731Z,1.92
2023-02-19T19:02:49.683Z,2.30
2023-02-19T19:05:22.851Z,2.13
2023-02-19T19:07:54.448Z,2.33
2023-02-19T19:10:21.483Z,2.67
2023-02-19T19:12:48.879Z,2.42
2023-02-19T19:15:18.464Z,1.98
2023-02-19T19:17:46.686Z,2.10
2023-02-19T19:20:14.703Z,2.35
2023-02-19T19:22:41.327Z,2.40
2023-02-19T19:25:08.953Z,3.30
2023-02-19T19:27:35.903Z,2.80
2023-02-19T19:30:04.767Z,2.70
2023-02-19T19:32:31.583Z,3.45
2023-02-19T19:34:58.423Z,2.28
2023-02-19T19:37:28.094Z,2.50
2023-02-19T19:39:56.284Z,2.92
2023-02-19T19:42:23.340Z,3.10
2023-02-19T19:44:50.163Z,3.67
2023-02-19T19:47:17.281Z,2.65
2023-02-19T19:49:47.223Z,2.67
2023-02-19T19:52:14.018Z,3.33
2023-02-19T19:54:42.318Z,2.47
2023-02-19T19:57:10.011Z,2.75
2023-02-19T19:59:39.176Z,3.13
2023-02-19T20:02:07.578Z,3.20
2023-02-19T20:04:34.641Z,3.17
2023-02-19T20:07:02.129Z,3.88
2023-02-19T20:09:29.139Z,3.70
2023-02-19T20:11:56.102Z,3.90
2023-02-19T20:14:24.433Z,3.50
2023-02-19T20:16:51.719Z,3.08
2023-02-19T20:19:20.331Z,2.92
2023-02-19T20:21:49.005Z,3.58
2023-02-19T20:24:17.541Z,3.00
2023-02-19T20:26:44.438Z,2.65
2023-02-19T20:29:11.595Z,2.35
2023-02-19T20:31:38.788Z,2.55
2023-02-19T20:34:05.855Z,2.50
2023-02-19T20:36:32.818Z,2.30
2023-02-19T20:38:59.771Z,3.17
2023-02-19T20:41:26.572Z,3.45
2023-02-19T20:43:53.481Z,9.00
2023-02-19T20:46:20.239Z,2.42
2023-02-19T20:48:47.139Z,2.50
2023-02-19T20:51:13.932Z,2.15
2023-02-19T20:53:41.928Z,3.00
2023-02-19T20:56:09.570Z,2.20
2023-02-19T20:58:36.288Z,2.22
2023-02-19T21:01:03.065Z,2.55
2023-02-19T21:03:30.159Z,2.30
2023-02-19T21:05:56.851Z,2.03
2023-02-19T21:08:23.536Z,2.60
2023-02-19T21:10:50.370Z,2.10
2023-02-19T21:13:17.034Z,1.98
2023-02-19T21:15:43.897Z,2.33
2023-02-19T21:18:10.983Z,2.00
2023-02-19T21:20:37.840Z,2.60
2023-02-19T21:23:04.809Z,2.55
2023-02-19T21:25:33.224Z,2.03
2023-02-19T21:28:00.585Z,2.45
2023-02-19T21:30:27.677Z,2.33
2023-02-19T21:32:54.416Z,2.65
2023-02-19T21:35:21.093Z,2.35
2023-02-19T21:37:48.084Z,2.40
2023-02-19T21:40:15.049Z,2.13
2023-02-19T21:42:41.751Z,2.30
2023-02-19T21:45:08.690Z,2.08
2023-02-19T21:47:35.481Z,2.47
2023-02-19T21:50:02.332Z,2.60
2023-02-19T21:52:31.054Z,2.30
2023-02-19T21:54:58.182Z,2.28
2023-02-19T21:57:25.063Z,2.15
2023-02-19T21:59:51.979Z,2.70
2023-02-19T22:02:22.449Z,2.70
2023-02-19T22:07:21.620Z,2.30
2023-02-19T22:09:49.917Z,2.63
2023-02-19T22:12:18.124Z,2.30
2023-02-19T22:14:45.672Z,2.30
2023-02-19T22:17:12.672Z,2.90
2023-02-19T22:19:39.503Z,2.80
2023-02-19T22:22:06.330Z,2.50
2023-02-19T22:24:33.160Z,2.80
2023-02-19T22:26:59.916Z,3.03
2023-02-19T22:29:26.969Z,3.22
2023-02-19T22:31:55.081Z,3.75
2023-02-19T22:34:22.050Z,3.58
2023-02-19T22:36:49.009Z,2.97
2023-02-19T22:39:25.043Z,3.13
2023-02-19T22:41:52.505Z,3.17
2023-02-19T22:44:19.510Z,3.20
2023-02-19T22:46:52.793Z,3.17
2023-02-19T22:49:20.336Z,3.08
2023-02-19T22:51:50.644Z,2.72
2023-02-19T22:54:17.586Z,2.75
2023-02-19T22:56:44.483Z,2.80
2023-02-19T22:59:11.160Z,2.55
2023-02-19T23:01:37.883Z,2.75
2023-02-19T23:04:04.869Z,3.63
2023-02-19T23:06:34.100Z,3.40
2023-02-19T23:09:10.546Z,3.38
2023-02-19T23:11:39.193Z,3.55
2023-02-19T23:14:07.090Z,3.83
2023-02-19T23:16:36.001Z,3.92
2023-02-19T23:19:08.100Z,4.53
2023-02-19T23:21:35.023Z,4.55
2023-02-19T23:24:01.942Z,4.57
2023-02-19T23:26:28.671Z,4.63
2023-02-19T23:28:55.864Z,4.85
2023-02-19T23:31:23.118Z,5.28
2023-02-19T23:33:50.417Z,5.35
2023-02-19T23:36:17.187Z,5.10
2023-02-19T23:38:45.924Z,5.40
2023-02-19T23:41:15.239Z,5.10
2023-02-19T23:43:42.179Z,5.55
2023-02-19T23:46:09.058Z,6.13
2023-02-19T23:48:35.770Z,5.78
2023-02-19T23:51:02.603Z,6.38
2023-02-19T23:53:29.876Z,6.05
2023-02-19T23:55:56.815Z,6.63
2023-02-19T23:58:23.581Z,7.00
